Time;durP1;ratioP1;P1;durP2;ratioP2;P2;SDS_P1;SDS_P2;PMS_P1;PMS_P2;Temp;Humidity;BMP_temperature;BMP_pressure;BME280_temperature;BME280_humidity;BME280_pressure;Samples;Min_cycle;Max_cycle;Signal;HPM_P1;HPM_P2
2024/02/12 02:03:02;;;;;;;23.83;12.27;;;;;;;;;;3394797;23;20054;-82
2024/02/12 02:05:28;;;;;;;22.90;12.60;;;;;;;;;;5006386;28;20360;-82
2024/02/12 02:07:56;;;;;;;21.17;12.35;;;;;;;;;;5001492;28;20386;-80
2024/02/12 02:10:23;;;;;;;25.65;12.25;;;;;;;;;;5011341;28;20041;-80
2024/02/12 02:12:49;;;;;;;20.45;12.20;;;;;;;;;;5009646;28;20037;-83
2024/02/12 02:15:15;;;;;;;24.73;12.27;;;;;;;;;;4993183;28;20030;-80
2024/02/12 02:17:41;;;;;;;23.85;13.23;;;;;;;;;;4989191;28;20019;-82
2024/02/12 02:20:08;;;;;;;21.15;11.73;;;;;;;;;;4987893;28;20026;-81
2024/02/12 02:22:34;;;;;;;23.08;12.82;;;;;;;;;;4995059;28;20038;-82
2024/02/12 02:25:00;;;;;;;23.58;12.80;;;;;;;;;;4987834;28;20120;-82
2024/02/12 02:27:28;;;;;;;25.45;13.02;;;;;;;;;;4988042;28;20491;-81
2024/02/12 02:29:53;;;;;;;22.27;11.85;;;;;;;;;;4993481;28;20034;-81
2024/02/12 02:32:18;;;;;;;26.30;12.30;;;;;;;;;;5011366;28;21317;-82
2024/02/12 02:34:44;;;;;;;24.02;13.00;;;;;;;;;;5008931;28;20498;-81
2024/02/12 02:37:13;;;;;;;24.75;12.88;;;;;;;;;;4986937;28;20475;-82
2024/02/12 02:39:38;;;;;;;24.13;13.13;;;;;;;;;;4990665;28;20033;-82
2024/02/12 02:42:05;;;;;;;20.40;11.98;;;;;;;;;;4988486;28;20396;-81
2024/02/12 02:44:31;;;;;;;23.15;12.95;;;;;;;;;;5004935;28;20037;-82
2024/02/12 02:46:56;;;;;;;25.33;12.50;;;;;;;;;;4993926;28;20022;-82
2024/02/12 02:49:24;;;;;;;23.77;12.45;;;;;;;;;;5009164;28;20394;-82
2024/02/12 02:51:49;;;;;;;23.55;12.77;;;;;;;;;;4995779;28;20120;-82
2024/02/12 02:54:15;;;;;;;23.10;12.32;;;;;;;;;;4990689;28;20568;-82
2024/02/12 02:56:40;;;;;;;23.50;13.15;;;;;;;;;;5008947;28;20453;-82
2024/02/12 02:59:08;;;;;;;23.98;12.65;;;;;;;;;;4992254;28;20026;-82
2024/02/12 03:01:34;;;;;;;21.00;12.20;;;;;;;;;;4992003;28;20030;-82
2024/02/12 03:04:00;;;;;;;22.10;13.52;;;;;;;;;;5000797;28;20037;-82
2024/02/12 03:06:26;;;;;;;24.33;13.02;;;;;;;;;;5003994;28;20030;-82
2024/02/12 03:08:51;;;;;;;23.75;13.10;;;;;;;;;;4991833;28;20476;-82
2024/02/12 03:11:24;;;;;;;26.15;12.73;;;;;;;;;;5009895;28;20028;-81
2024/02/12 03:13:54;;;;;;;;;;;;;;;;;;5009965;28;20046;-81
2024/02/12 03:16:22;;;;;;;22.45;12.32;;;;;;;;;;5007577;28;19914;-82
2024/02/12 03:18:48;;;;;;;23.88;12.30;;;;;;;;;;4995288;28;20113;-82
2024/02/12 03:21:19;;;;;;;25.17;13.10;;;;;;;;;;5006379;28;20109;-82
2024/02/12 03:23:46;;;;;;;24.45;12.52;;;;;;;;;;5008015;28;20052;-81
2024/02/12 03:26:11;;;;;;;23.15;12.65;;;;;;;;;;5007455;28;20040;-81
2024/02/12 03:28:37;;;;;;;24.27;12.60;;;;;;;;;;4992226;28;20022;-81
2024/02/12 03:31:04;;;;;;;23.55;12.45;;;;;;;;;;5005595;28;20097;-82
2024/02/12 03:33:30;;;;;;;23.45;12.82;;;;;;;;;;4994830;28;20108;-82
2024/02/12 03:35:56;;;;;;;27.98;13.27;;;;;;;;;;4992035;28;20040;-81
2024/02/12 03:38:24;;;;;;;24.48;13.05;;;;;;;;;;5006856;28;20029;-82
2024/02/12 03:40:50;;;;;;;26.95;12.70;;;;;;;;;;5005403;28;21144;-82
2024/02/12 03:43:17;;;;;;;26.55;12.95;;;;;;;;;;4990610;28;20448;-81
2024/02/12 03:45:44;;;;;;;25.42;12.38;;;;;;;;;;4994692;28;20026;-82
2024/02/12 03:59:50;;;;;;;25.55;12.95;;;;;;;;;;4997949;28;20457;-81
2024/02/12 03:59:55;;;;;;;25.17;12.23;;;;;;;;;;5012060;28;20041;-82
2024/02/12 04:01:56;;;;;;;24.73;12.73;;;;;;;;;;4999392;28;20175;-82
2024/02/12 04:04:21;;;;;;;25.15;13.27;;;;;;;;;;4988040;28;20038;-82
2024/02/12 04:06:47;;;;;;;25.48;13.02;;;;;;;;;;4992086;28;20048;-81
2024/02/12 04:09:12;;;;;;;25.05;13.43;;;;;;;;;;5007947;28;20149;-82
2024/02/12 04:11:41;;;;;;;26.92;12.90;;;;;;;;;;5003956;28;20034;-82
2024/02/12 04:14:09;;;;;;;26.50;13.88;;;;;;;;;;4991808;28;20026;-82
2024/02/12 04:16:36;;;;;;;26.00;13.05;;;;;;;;;;5007309;28;20487;-82
2024/02/12 04:19:03;;;;;;;29.13;13.90;;;;;;;;;;4993094;28;20038;-85
2024/02/12 04:21:31;;;;;;;30.65;14.95;;;;;;;;;;4992592;28;20056;-86
2024/02/12 04:23:57;;;;;;;29.10;15.13;;;;;;;;;;5001051;28;20030;-85
2024/02/12 04:26:23;;;;;;;29.33;14.43;;;;;;;;;;5006929;28;20022;-86
2024/02/12 04:28:49;;;;;;;27.20;14.45;;;;;;;;;;4990833;28;20077;-85
2024/02/12 04:31:14;;;;;;;29.00;14.48;;;;;;;;;;4992893;28;20029;-85
2024/02/12 04:33:40;;;;;;;27.63;14.45;;;;;;;;;;5007274;28;20021;-85
2024/02/12 04:36:08;;;;;;;28.85;14.80;;;;;;;;;;4989455;28;20045;-85
2024/02/12 04:38:34;;;;;;;26.75;14.63;;;;;;;;;;5008354;28;20025;-86
2024/02/12 04:41:00;;;;;;;29.20;14.70;;;;;;;;;;5009978;28;20025;-85
2024/02/12 04:43:25;;;;;;;30.75;16.38;;;;;;;;;;4991665;28;20029;-85
2024/02/12 04:45:54;;;;;;;29.17;14.27;;;;;;;;;;4990673;28;20045;-85
2024/02/12 04:48:21;;;;;;;27.60;14.50;;;;;;;;;;5010976;28;20521;-85
2024/02/12 04:50:46;;;;;;;32.35;15.77;;;;;;;;;;5011684;28;20037;-85
2024/02/12 04:53:12;;;;;;;27.60;14.90;;;;;;;;;;5008374;28;20081;-85
2024/02/12 04:55:37;;;;;;;32.38;15.27;;;;;;;;;;5007608;28;20079;-85
2024/02/12 04:58:04;;;;;;;28.55;14.48;;;;;;;;;;5004885;28;20462;-86
2024/02/12 05:00:30;;;;;;;31.40;15.65;;;;;;;;;;5027970;28;20108;-85
2024/02/12 05:02:57;;;;;;;29.92;14.85;;;;;;;;;;5028361;28;20025;-85
2024/02/12 05:05:22;;;;;;;32.00;15.75;;;;;;;;;;5011826;28;20032;-85
2024/02/12 05:07:48;;;;;;;29.08;14.93;;;;;;;;;;5026060;28;20017;-85
2024/02/12 05:10:13;;;;;;;30.60;15.05;;;;;;;;;;5025378;28;20034;-85
2024/02/12 05:12:39;;;;;;;25.95;14.57;;;;;;;;;;5005991;28;20021;-85
2024/02/12 05:15:06;;;;;;;29.20;15.75;;;;;;;;;;5005996;28;20125;-85
2024/02/12 05:17:52;;;;;;;28.27;14.50;;;;;;;;;;5004964;28;20476;-84
2024/02/12 05:23:02;;;;;;;28.73;13.80;;;;;;;;;;5024837;28;20036;-85
2024/02/12 05:25:27;;;;;;;27.50;15.05;;;;;;;;;;5007144;28;20033;-85
2024/02/12 05:27:54;;;;;;;29.60;15.23;;;;;;;;;;5001607;28;20037;-85
2024/02/12 05:30:20;;;;;;;26.35;14.35;;;;;;;;;;5010438;28;20111;-82
2024/02/12 05:32:45;;;;;;;27.70;14.48;;;;;;;;;;5012098;28;20017;-81
2024/02/12 05:35:12;;;;;;;25.45;13.70;;;;;;;;;;5010628;28;20048;-81
2024/02/12 05:37:37;;;;;;;28.40;14.70;;;;;;;;;;5029719;28;20108;-81
2024/02/12 05:40:07;;;;;;;25.63;14.23;;;;;;;;;;5022456;28;20109;-81
2024/02/12 05:42:32;;;;;;;27.05;14.60;;;;;;;;;;5023871;28;20056;-81
2024/02/12 05:44:58;;;;;;;26.70;13.73;;;;;;;;;;5027904;28;20061;-81
2024/02/12 05:47:23;;;;;;;24.67;13.70;;;;;;;;;;5011434;28;20061;-81
2024/02/12 05:49:49;;;;;;;27.50;13.90;;;;;;;;;;5030193;28;20417;-81
2024/02/12 05:52:15;;;;;;;28.08;14.73;;;;;;;;;;5008492;28;20037;-81
2024/02/12 05:54:41;;;;;;;27.88;14.65;;;;;;;;;;5011272;28;20032;-81
2024/02/12 05:57:09;;;;;;;24.17;13.52;;;;;;;;;;5009257;28;20026;-81
2024/02/12 05:59:34;;;;;;;25.20;13.30;;;;;;;;;;5014955;28;20536;-81
2024/02/12 06:02:02;;;;;;;30.05;13.45;;;;;;;;;;5012921;28;20041;-81
2024/02/12 06:04:28;;;;;;;23.50;12.55;;;;;;;;;;5007467;28;20080;-81
2024/02/12 06:06:53;;;;;;;27.38;13.63;;;;;;;;;;5015539;28;20453;-81
2024/02/12 06:09:19;;;;;;;26.70;12.90;;;;;;;;;;5016159;28;20018;-81
2024/02/12 06:11:44;;;;;;;27.70;13.38;;;;;;;;;;5030328;28;20025;-81
2024/02/12 06:14:10;;;;;;;25.77;13.52;;;;;;;;;;5008591;28;20443;-81
2024/02/12 06:16:36;;;;;;;24.13;12.68;;;;;;;;;;5029650;28;20312;-81
2024/02/12 06:19:03;;;;;;;26.10;13.20;;;;;;;;;;5014934;28;20025;-82
2024/02/12 06:21:28;;;;;;;22.45;12.05;;;;;;;;;;5016058;28;20029;-81
2024/02/12 06:23:54;;;;;;;25.52;13.43;;;;;;;;;;5012152;28;20025;-81
2024/02/12 06:26:19;;;;;;;21.90;12.27;;;;;;;;;;5030044;28;20032;-81
2024/02/12 06:28:49;;;;;;;24.85;12.82;;;;;;;;;;5010526;28;20116;-81
2024/02/12 06:31:15;;;;;;;28.85;12.70;;;;;;;;;;5014936;28;20091;-81
2024/02/12 06:33:40;;;;;;;22.58;12.35;;;;;;;;;;5008758;28;20064;-82
2024/02/12 06:36:06;;;;;;;22.77;12.20;;;;;;;;;;5015720;28;20108;-82
2024/02/12 06:38:31;;;;;;;22.50;11.45;;;;;;;;;;5030224;28;20032;-82
2024/02/12 06:40:58;;;;;;;20.38;11.95;;;;;;;;;;5011488;28;20029;-85
2024/02/12 06:43:24;;;;;;;18.92;11.50;;;;;;;;;;5029656;28;20033;-85
2024/02/12 06:45:49;;;;;;;23.27;12.02;;;;;;;;;;5029522;28;20033;-85
2024/02/12 06:48:15;;;;;;;17.42;10.65;;;;;;;;;;5007600;28;20029;-85
2024/02/12 06:50:40;;;;;;;21.92;11.27;;;;;;;;;;5013039;28;20083;-86
2024/02/12 06:53:06;;;;;;;19.92;12.10;;;;;;;;;;5030620;28;20033;-85
2024/02/12 06:55:32;;;;;;;23.88;12.15;;;;;;;;;;5012395;28;20466;-85
2024/02/12 06:57:58;;;;;;;23.30;11.82;;;;;;;;;;5011827;28;20025;-85
2024/02/12 07:00:24;;;;;;;19.63;11.32;;;;;;;;;;5027019;28;20472;-85
2024/02/12 07:02:49;;;;;;;20.38;11.57;;;;;;;;;;4999706;28;20068;-85
2024/02/12 07:05:17;;;;;;;23.90;13.00;;;;;;;;;;5028321;28;20371;-85
2024/02/12 07:07:48;;;;;;;21.75;12.90;;;;;;;;;;5012505;28;20017;-85
2024/02/12 07:10:14;;;;;;;25.75;14.05;;;;;;;;;;5026304;28;20025;-85
2024/02/12 07:12:40;;;;;;;27.95;14.35;;;;;;;;;;5008020;28;20108;-86
2024/02/12 07:15:07;;;;;;;27.65;14.75;;;;;;;;;;5008895;28;20072;-85
2024/02/12 07:17:33;;;;;;;28.50;15.43;;;;;;;;;;5012842;28;20028;-85
2024/02/12 07:19:58;;;;;;;25.83;15.07;;;;;;;;;;5003155;28;20033;-86
2024/02/12 07:22:26;;;;;;;28.23;15.32;;;;;;;;;;5025093;28;20029;-85
2024/02/12 07:24:51;;;;;;;34.25;17.40;;;;;;;;;;5010596;28;20316;-85
2024/02/12 07:27:18;;;;;;;29.83;16.20;;;;;;;;;;5013161;28;20438;-85
2024/02/12 07:29:45;;;;;;;29.60;16.90;;;;;;;;;;5011497;28;20117;-85
2024/02/12 07:32:12;;;;;;;30.90;15.75;;;;;;;;;;5014761;28;20557;-85
2024/02/12 07:34:37;;;;;;;31.10;17.08;;;;;;;;;;5004378;28;20033;-85
2024/02/12 07:37:03;;;;;;;32.03;17.42;;;;;;;;;;5028060;28;20433;-85
2024/02/12 07:39:29;;;;;;;34.35;18.13;;;;;;;;;;5012173;28;20487;-85
2024/02/12 07:41:58;;;;;;;31.48;17.88;;;;;;;;;;5028466;28;20022;-86
2024/02/12 07:44:24;;;;;;;32.50;17.80;;;;;;;;;;5016464;28;20041;-85
2024/02/12 07:46:49;;;;;;;31.55;17.85;;;;;;;;;;5022755;28;20025;-85
2024/02/12 07:49:15;;;;;;;32.90;18.55;;;;;;;;;;5006186;28;20387;-85
2024/02/12 07:51:40;;;;;;;29.35;16.77;;;;;;;;;;5009239;28;20021;-82
2024/02/12 07:54:06;;;;;;;31.27;17.77;;;;;;;;;;5007642;28;20037;-81
2024/02/12 07:56:31;;;;;;;35.28;18.58;;;;;;;;;;5007488;28;20095;-81
2024/02/12 07:58:57;;;;;;;30.17;17.88;;;;;;;;;;5006100;28;20121;-81
2024/02/12 08:01:22;;;;;;;32.58;18.55;;;;;;;;;;5003547;28;20068;-81
2024/02/12 08:03:48;;;;;;;34.88;19.05;;;;;;;;;;5004266;28;20479;-81
2024/02/12 08:06:15;;;;;;;33.25;17.95;;;;;;;;;;5005717;28;20467;-81
2024/02/12 08:08:41;;;;;;;33.40;18.17;;;;;;;;;;5006265;28;20041;-81
2024/02/12 08:11:06;;;;;;;32.92;17.38;;;;;;;;;;5018678;28;20037;-81
2024/02/12 08:13:32;;;;;;;31.65;17.35;;;;;;;;;;5003939;28;20021;-81
2024/02/12 08:15:58;;;;;;;32.13;18.80;;;;;;;;;;5003765;28;20026;-81
2024/02/12 08:18:24;;;;;;;30.83;17.92;;;;;;;;;;5009530;28;20508;-81
2024/02/12 08:20:49;;;;;;;33.92;18.63;;;;;;;;;;5008205;28;20026;-81
2024/02/12 08:23:15;;;;;;;32.75;18.25;;;;;;;;;;5006746;28;20029;-81
2024/02/12 08:25:41;;;;;;;36.38;18.65;;;;;;;;;;5006036;28;20034;-81
2024/02/12 08:28:07;;;;;;;30.48;17.85;;;;;;;;;;5007024;28;20392;-81
2024/02/12 08:30:33;;;;;;;34.90;18.83;;;;;;;;;;5006497;28;20180;-81
2024/02/12 08:32:59;;;;;;;32.85;18.30;;;;;;;;;;5003158;28;20785;-81
2024/02/12 08:35:25;;;;;;;32.22;18.00;;;;;;;;;;5011247;28;20485;-81
2024/02/12 08:37:50;;;;;;;32.17;18.58;;;;;;;;;;5013626;28;20031;-81
2024/02/12 08:40:17;;;;;;;34.25;17.90;;;;;;;;;;5011528;28;20041;-81
2024/02/12 08:42:45;;;;;;;36.70;19.02;;;;;;;;;;5008614;28;20056;-81
2024/02/12 08:45:11;;;;;;;32.67;18.10;;;;;;;;;;5009083;28;20048;-81
2024/02/12 08:47:40;;;;;;;34.00;18.10;;;;;;;;;;5025759;28;20040;-80
2024/02/12 08:50:07;;;;;;;33.05;17.70;;;;;;;;;;5020776;28;20108;-80
2024/02/12 08:52:32;;;;;;;33.20;18.48;;;;;;;;;;5011064;28;20022;-79
2024/02/12 08:55:01;;;;;;;30.95;17.65;;;;;;;;;;5021162;28;20028;-81
2024/02/12 08:57:27;;;;;;;32.10;17.83;;;;;;;;;;5011883;28;20033;-81
2024/02/12 08:59:52;;;;;;;31.25;16.77;;;;;;;;;;5027472;28;20438;-81
2024/02/12 09:02:18;;;;;;;32.60;18.10;;;;;;;;;;5005800;28;20105;-81
2024/02/12 09:04:44;;;;;;;26.20;15.82;;;;;;;;;;5011391;28;20018;-81
2024/02/12 09:07:11;;;;;;;28.73;15.48;;;;;;;;;;5010267;28;20033;-81
2024/02/12 09:09:37;;;;;;;28.20;16.00;;;;;;;;;;5013835;28;20029;-81
2024/02/12 09:12:02;;;;;;;28.52;15.80;;;;;;;;;;5010957;28;20552;-81
2024/02/12 09:14:27;;;;;;;26.60;15.77;;;;;;;;;;5027601;28;20470;-81
2024/02/12 09:16:53;;;;;;;27.63;15.70;;;;;;;;;;5026898;28;20517;-81
2024/02/12 09:19:18;;;;;;;28.67;15.63;;;;;;;;;;5023346;28;20028;-81
2024/02/12 09:21:44;;;;;;;28.60;15.07;;;;;;;;;;5013742;28;20017;-81
2024/02/12 09:24:11;;;;;;;28.67;16.17;;;;;;;;;;5010373;28;20029;-81
2024/02/12 09:26:37;;;;;;;30.85;16.10;;;;;;;;;;5003755;28;20059;-81
2024/02/12 09:29:02;;;;;;;24.98;14.60;;;;;;;;;;5010689;28;20053;-81
2024/02/12 09:31:32;;;;;;;21.00;12.85;;;;;;;;;;4998128;28;20112;-81
2024/02/12 09:33:59;;;;;;;23.40;13.02;;;;;;;;;;5007882;28;20029;-81
2024/02/12 09:36:25;;;;;;;21.27;12.63;;;;;;;;;;5027438;28;20021;-82
2024/02/12 09:38:52;;;;;;;21.95;11.98;;;;;;;;;;5013214;28;20467;-82
2024/02/12 09:41:30;;;;;;;21.05;12.05;;;;;;;;;;5006683;28;20037;-81
2024/02/12 09:43:55;;;;;;;19.70;11.55;;;;;;;;;;5006161;28;20032;-81
2024/02/12 09:46:21;;;;;;;22.25;12.52;;;;;;;;;;5012393;28;20014;-81
2024/02/12 09:48:52;;;;;;;20.95;11.63;;;;;;;;;;5009807;28;20033;-81
2024/02/12 09:51:18;;;;;;;21.90;12.40;;;;;;;;;;5001093;28;20018;-81
2024/02/12 09:53:44;;;;;;;23.52;12.07;;;;;;;;;;5028198;28;20029;-81
2024/02/12 09:56:11;;;;;;;21.20;12.00;;;;;;;;;;5004003;28;20025;-81
2024/02/12 09:58:37;;;;;;;19.60;11.85;;;;;;;;;;5006469;28;20025;-81
2024/02/12 10:01:07;;;;;;;21.95;11.52;;;;;;;;;;4997742;28;20040;-81
2024/02/12 10:03:33;;;;;;;18.73;10.55;;;;;;;;;;5005540;28;20148;-81
2024/02/12 10:05:58;;;;;;;20.88;10.27;;;;;;;;;;5023579;28;20182;-81
2024/02/12 10:08:25;;;;;;;17.63;9.98;;;;;;;;;;5025054;28;20062;-81
2024/02/12 10:10:54;;;;;;;18.20;10.55;;;;;;;;;;5003630;28;20017;-81
2024/02/12 10:13:20;;;;;;;21.95;10.57;;;;;;;;;;5026382;28;20021;-81
2024/02/12 10:15:50;;;;;;;15.95;9.23;;;;;;;;;;5010795;28;20107;-81
2024/02/12 10:18:16;;;;;;;18.85;9.60;;;;;;;;;;5018535;28;20030;-81
2024/02/12 10:20:42;;;;;;;16.27;8.70;;;;;;;;;;5004057;28;20029;-81
2024/02/12 10:23:12;;;;;;;15.38;8.93;;;;;;;;;;4999307;28;20056;-82
2024/02/12 10:25:43;;;;;;;17.25;8.38;;;;;;;;;;5006648;28;20544;-81
2024/02/12 10:28:13;;;;;;;16.73;8.52;;;;;;;;;;5016482;28;20033;-81
2024/02/12 10:30:46;;;;;;;15.02;7.93;;;;;;;;;;5022816;28;20041;-81
2024/02/12 10:33:12;;;;;;;16.35;8.55;;;;;;;;;;5020597;28;20475;-81
2024/02/12 10:35:40;;;;;;;14.60;8.55;;;;;;;;;;5003546;28;20044;-81
2024/02/12 10:38:06;;;;;;;14.45;8.77;;;;;;;;;;5007750;28;20034;-82
2024/02/12 10:40:39;;;;;;;14.38;7.85;;;;;;;;;;5029492;28;20029;-81
2024/02/12 10:43:05;;;;;;;;;;;;;;;;;;5006403;28;20623;-81
2024/02/12 10:45:31;;;;;;;16.45;8.13;;;;;;;;;;4994031;28;20359;-81
2024/02/12 10:47:57;;;;;;;13.65;7.65;;;;;;;;;;5015090;28;20033;-81
2024/02/12 10:50:23;;;;;;;13.20;7.78;;;;;;;;;;5018425;28;20533;-81
2024/02/12 10:52:49;;;;;;;15.30;7.10;;;;;;;;;;4996375;28;20556;-82
2024/02/12 10:55:16;;;;;;;12.10;7.00;;;;;;;;;;5018003;28;20099;-82
2024/02/12 10:57:46;;;;;;;14.05;7.28;;;;;;;;;;5020150;28;20033;-81
2024/02/12 11:00:25;;;;;;;13.98;6.93;;;;;;;;;;4999248;28;20120;-81
2024/02/12 11:02:53;;;;;;;13.65;7.10;;;;;;;;;;5019424;28;20071;-81
2024/02/12 11:05:20;;;;;;;12.13;7.00;;;;;;;;;;5020214;28;20035;-81
2024/02/12 11:07:46;;;;;;;16.40;7.55;;;;;;;;;;5017130;28;20041;-81
2024/02/12 11:10:18;;;;;;;12.75;7.78;;;;;;;;;;4996130;28;20486;-81
2024/02/12 11:12:47;;;;;;;16.27;7.63;;;;;;;;;;5004654;28;20029;-81
2024/02/12 11:15:24;;;;;;;15.35;7.43;;;;;;;;;;5004212;28;20283;-81
2024/02/12 11:17:50;;;;;;;16.05;7.25;;;;;;;;;;5015513;28;20044;-81
2024/02/12 11:20:18;;;;;;;15.18;7.25;;;;;;;;;;5002431;28;20029;-81
2024/02/12 11:22:45;;;;;;;14.70;7.28;;;;;;;;;;5011103;28;20057;-81
2024/02/12 11:25:15;;;;;;;17.60;9.15;;;;;;;;;;5022646;28;20025;-81
2024/02/12 11:27:58;;;;;;;15.43;7.53;;;;;;;;;;5011902;28;20025;-81
2024/02/12 11:30:24;;;;;;;15.20;7.50;;;;;;;;;;4993667;28;20195;-81
2024/02/12 11:32:49;;;;;;;13.77;8.00;;;;;;;;;;5004794;28;20466;-85
2024/02/12 11:35:18;;;;;;;13.25;8.10;;;;;;;;;;4997594;28;20029;-85
2024/02/12 11:37:54;;;;;;;14.07;7.75;;;;;;;;;;4997183;28;20033;-85
2024/02/12 11:40:20;;;;;;;16.98;8.50;;;;;;;;;;5020812;28;20029;-84
2024/02/12 11:42:49;;;;;;;13.07;8.00;;;;;;;;;;5000661;28;20477;-84
2024/02/12 11:45:17;;;;;;;12.40;8.18;;;;;;;;;;4996263;28;20120;-85
2024/02/12 11:47:43;;;;;;;16.52;8.38;;;;;;;;;;5018322;28;20032;-85
2024/02/12 11:50:24;;;;;;;14.63;8.35;;;;;;;;;;5020392;28;20034;-85
2024/02/12 11:52:53;;;;;;;14.68;8.13;;;;;;;;;;5018666;28;20026;-85
2024/02/12 11:55:19;;;;;;;14.07;8.63;;;;;;;;;;4997400;28;20093;-85
2024/02/12 11:57:48;;;;;;;17.23;8.25;;;;;;;;;;5000095;28;20561;-86
2024/02/12 12:00:20;;;;;;;14.48;8.20;;;;;;;;;;5003969;28;20470;-85
2024/02/12 12:02:55;;;;;;;14.27;8.20;;;;;;;;;;5019014;28;20042;-85
2024/02/12 12:05:25;;;;;;;13.50;8.43;;;;;;;;;;5008203;28;20044;-85
2024/02/12 12:07:56;;;;;;;14.50;8.60;;;;;;;;;;5016444;28;20083;-85
2024/02/12 12:10:26;;;;;;;14.35;8.55;;;;;;;;;;5020600;28;20033;-86
2024/02/12 12:12:53;;;;;;;17.35;8.60;;;;;;;;;;5003682;28;20105;-85
2024/02/12 12:15:18;;;;;;;15.38;9.10;;;;;;;;;;4997951;28;20056;-84
2024/02/12 12:17:44;;;;;;;16.13;8.85;;;;;;;;;;5017496;28;20064;-84
2024/02/12 12:20:12;;;;;;;14.52;8.75;;;;;;;;;;4996818;28;20034;-85
2024/02/12 12:22:42;;;;;;;13.35;8.95;;;;;;;;;;5021641;28;20643;-84
2024/02/12 12:25:09;;;;;;;12.73;9.05;;;;;;;;;;5002783;28;20091;-84
2024/02/12 12:27:37;;;;;;;13.15;8.68;;;;;;;;;;5015931;28;20030;-85
2024/02/12 12:30:12;;;;;;;15.85;9.38;;;;;;;;;;5000826;28;20026;-84
2024/02/12 12:32:39;;;;;;;14.00;8.93;;;;;;;;;;5014524;28;20036;-84
2024/02/12 12:35:07;;;;;;;12.00;8.38;;;;;;;;;;5007416;28;20124;-85
2024/02/12 12:37:33;;;;;;;14.30;8.85;;;;;;;;;;5004539;28;20033;-85
2024/02/12 12:40:00;;;;;;;14.88;8.70;;;;;;;;;;5022182;28;20614;-85
2024/02/12 12:42:25;;;;;;;15.48;9.43;;;;;;;;;;5017036;28;20116;-85
2024/02/12 12:44:51;;;;;;;14.07;9.02;;;;;;;;;;5006330;28;20090;-84
2024/02/12 12:47:18;;;;;;;12.80;8.55;;;;;;;;;;4991475;28;20033;-84
2024/02/12 12:49:44;;;;;;;12.75;8.27;;;;;;;;;;5022181;28;20036;-84
2024/02/12 12:52:10;;;;;;;12.30;8.02;;;;;;;;;;5022817;28;20030;-84
2024/02/12 12:54:39;;;;;;;12.68;7.45;;;;;;;;;;5015624;28;20058;-84
2024/02/12 12:57:05;;;;;;;11.88;7.05;;;;;;;;;;4994653;28;20029;-84
2024/02/12 12:59:30;;;;;;;11.35;7.80;;;;;;;;;;5023878;28;20041;-84
2024/02/12 13:01:55;;;;;;;10.95;7.38;;;;;;;;;;5004985;28;20028;-84
2024/02/12 13:04:21;;;;;;;13.70;7.10;;;;;;;;;;5001197;28;20499;-84
2024/02/12 13:06:47;;;;;;;10.07;6.30;;;;;;;;;;5018080;28;20034;-84
2024/02/12 13:09:17;;;;;;;10.77;7.38;;;;;;;;;;5003848;28;20183;-84
2024/02/12 13:11:43;;;;;;;12.18;6.75;;;;;;;;;;5019892;28;20032;-84
2024/02/12 13:14:08;;;;;;;12.43;6.82;;;;;;;;;;5006361;28;20030;-84
2024/02/12 13:16:37;;;;;;;12.27;6.75;;;;;;;;;;5018809;28;20402;-84
2024/02/12 13:19:04;;;;;;;10.57;6.32;;;;;;;;;;5018072;28;20038;-84
2024/02/12 13:21:29;;;;;;;9.73;5.60;;;;;;;;;;5007240;28;20569;-84
2024/02/12 13:23:55;;;;;;;8.80;5.00;;;;;;;;;;5008626;28;20034;-84
2024/02/12 13:26:21;;;;;;;9.93;5.32;;;;;;;;;;5019205;28;20421;-84
2024/02/12 13:28:51;;;;;;;12.25;4.82;;;;;;;;;;4996981;28;20041;-84
2024/02/12 13:31:18;;;;;;;8.27;4.63;;;;;;;;;;5002704;28;20367;-84
2024/02/12 13:33:44;;;;;;;8.90;5.20;;;;;;;;;;5016330;28;20018;-84
2024/02/12 13:36:10;;;;;;;12.75;5.80;;;;;;;;;;5004643;28;20033;-84
2024/02/12 13:38:38;;;;;;;14.30;6.60;;;;;;;;;;4999610;28;20032;-84
2024/02/12 13:41:05;;;;;;;10.38;6.10;;;;;;;;;;4992286;28;20119;-84
2024/02/12 13:43:31;;;;;;;11.25;6.15;;;;;;;;;;5013951;28;20034;-84
2024/02/12 13:46:01;;;;;;;8.48;5.50;;;;;;;;;;5009373;28;20034;-84
2024/02/12 13:48:26;;;;;;;11.85;5.50;;;;;;;;;;5012771;28;20022;-85
2024/02/12 13:50:52;;;;;;;11.48;5.30;;;;;;;;;;4997494;28;20041;-85
2024/02/12 13:53:17;;;;;;;9.07;4.35;;;;;;;;;;4995260;28;20022;-81
2024/02/12 13:55:44;;;;;;;6.22;2.67;;;;;;;;;;5001020;28;20112;-81
2024/02/12 13:58:10;;;;;;;9.57;2.78;;;;;;;;;;5009185;28;20021;-80
2024/02/12 14:00:37;;;;;;;5.10;2.00;;;;;;;;;;5003982;28;20452;-80
2024/02/12 14:03:04;;;;;;;4.03;2.20;;;;;;;;;;5014587;28;20403;-81
2024/02/12 14:05:30;;;;;;;6.47;2.33;;;;;;;;;;4998987;28;20029;-81
2024/02/12 14:07:55;;;;;;;5.72;2.45;;;;;;;;;;5007074;28;20110;-81
2024/02/12 14:10:22;;;;;;;5.35;2.63;;;;;;;;;;5019778;28;20029;-80
2024/02/12 14:12:49;;;;;;;6.65;2.90;;;;;;;;;;5017123;28;20030;-81
2024/02/12 14:15:16;;;;;;;8.43;2.85;;;;;;;;;;5004168;28;20137;-81
2024/02/12 14:17:45;;;;;;;5.57;2.63;;;;;;;;;;5006451;28;20075;-81
2024/02/12 14:20:16;;;;;;;8.55;2.88;;;;;;;;;;5014347;28;20887;-81
2024/02/12 14:22:46;;;;;;;6.90;2.70;;;;;;;;;;5007754;28;20064;-81
2024/02/12 14:25:12;;;;;;;11.10;3.80;;;;;;;;;;5010275;28;20026;-81
2024/02/12 14:27:39;;;;;;;10.73;3.53;;;;;;;;;;5025424;28;20033;-81
2024/02/12 14:30:11;;;;;;;5.68;2.83;;;;;;;;;;5006513;28;20025;-81
2024/02/12 14:32:38;;;;;;;10.38;2.90;;;;;;;;;;5003834;28;20037;-79
2024/02/12 14:35:04;;;;;;;8.15;2.78;;;;;;;;;;4999442;28;20037;-81
2024/02/12 14:37:38;;;;;;;8.23;2.83;;;;;;;;;;4997394;28;20029;-81
2024/02/12 14:40:05;;;;;;;5.07;2.78;;;;;;;;;;5019896;28;20034;-81
2024/02/12 14:42:35;;;;;;;5.90;2.60;;;;;;;;;;5002154;28;20033;-81
2024/02/12 14:45:05;;;;;;;5.72;2.67;;;;;;;;;;5015470;28;20041;-80
2024/02/12 14:47:31;;;;;;;4.72;1.70;;;;;;;;;;5003609;28;20044;-80
2024/02/12 14:49:58;;;;;;;4.03;1.40;;;;;;;;;;5005713;28;20029;-81
2024/02/12 14:52:23;;;;;;;5.95;1.83;;;;;;;;;;5020004;28;20035;-81
2024/02/12 14:54:49;;;;;;;5.80;1.50;;;;;;;;;;5004334;28;20025;-81
2024/02/12 14:57:15;;;;;;;4.05;1.60;;;;;;;;;;5024652;28;20072;-81
2024/02/12 14:59:41;;;;;;;5.80;1.95;;;;;;;;;;5020778;28;20093;-81
2024/02/12 15:02:13;;;;;;;5.15;1.50;;;;;;;;;;5004140;28;20064;-81
2024/02/12 15:04:45;;;;;;;6.73;1.67;;;;;;;;;;5020902;28;20036;-81
2024/02/12 15:07:11;;;;;;;6.22;1.60;;;;;;;;;;5004884;28;20275;-81
2024/02/12 15:09:44;;;;;;;3.38;1.30;;;;;;;;;;5024167;28;20499;-81
2024/02/12 15:12:11;;;;;;;4.85;1.33;;;;;;;;;;5003675;28;20037;-84
2024/02/12 15:14:36;;;;;;;4.18;1.08;;;;;;;;;;5019505;28;20056;-84
2024/02/12 15:17:01;;;;;;;4.00;1.10;;;;;;;;;;5008311;28;20049;-84
2024/02/12 15:19:27;;;;;;;5.13;1.00;;;;;;;;;;4991351;28;20035;-84
2024/02/12 15:21:54;;;;;;;3.97;1.10;;;;;;;;;;4991952;28;20153;-85
2024/02/12 15:24:19;;;;;;;3.38;1.25;;;;;;;;;;5015793;28;20028;-84
2024/02/12 15:26:45;;;;;;;3.67;0.95;;;;;;;;;;5006900;28;20034;-84
2024/02/12 15:29:12;;;;;;;6.93;1.30;;;;;;;;;;5002278;28;20546;-84
2024/02/12 15:31:41;;;;;;;5.20;1.30;;;;;;;;;;5002503;28;20029;-84
2024/02/12 15:34:08;;;;;;;4.68;1.10;;;;;;;;;;5014675;28;20184;-84
2024/02/12 15:36:39;;;;;;;3.78;1.25;;;;;;;;;;4996762;28;20034;-84
2024/02/12 15:39:10;;;;;;;4.90;1.10;;;;;;;;;;5017975;28;20040;-84
2024/02/12 15:41:37;;;;;;;5.75;1.40;;;;;;;;;;5001711;28;20029;-84
2024/02/12 15:44:05;;;;;;;3.72;0.88;;;;;;;;;;5003085;28;20428;-84
2024/02/12 15:46:34;;;;;;;3.53;1.10;;;;;;;;;;5026306;28;20028;-84
2024/02/12 15:48:59;;;;;;;4.65;1.10;;;;;;;;;;5011811;28;20033;-84
2024/02/12 15:51:27;;;;;;;4.60;0.90;;;;;;;;;;5005123;28;20022;-84
2024/02/12 15:54:05;;;;;;;7.07;1.33;;;;;;;;;;5028559;28;20420;-84
2024/02/12 15:56:32;;;;;;;4.95;1.38;;;;;;;;;;4956706;28;20046;-84
2024/02/12 15:58:57;;;;;;;6.63;1.10;;;;;;;;;;4949088;28;20066;-84
2024/02/12 16:01:26;;;;;;;6.38;0.93;;;;;;;;;;4956734;28;20109;-84
2024/02/12 16:03:51;;;;;;;6.03;1.10;;;;;;;;;;4954361;28;20033;-84
2024/02/12 16:06:17;;;;;;;3.58;1.00;;;;;;;;;;4949547;28;20467;-84
2024/02/12 16:08:44;;;;;;;5.80;1.17;;;;;;;;;;4963877;28;20541;-84
2024/02/12 16:11:12;;;;;;;4.43;1.38;;;;;;;;;;4968016;28;20043;-84
2024/02/12 16:13:38;;;;;;;5.95;1.02;;;;;;;;;;4966898;28;20503;-84
2024/02/12 16:16:07;;;;;;;4.30;1.13;;;;;;;;;;4946899;28;20042;-84
2024/02/12 16:18:32;;;;;;;4.93;1.30;;;;;;;;;;4949518;28;20035;-84
2024/02/12 16:21:03;;;;;;;4.03;1.10;;;;;;;;;;4951681;28;20023;-84
2024/02/12 16:23:29;;;;;;;5.93;1.52;;;;;;;;;;4963285;28;20031;-80
2024/02/12 16:25:55;;;;;;;5.93;1.38;;;;;;;;;;4952174;28;20043;-81
2024/02/12 16:28:21;;;;;;;6.90;1.15;;;;;;;;;;4967735;28;20484;-81
2024/02/12 16:30:48;;;;;;;6.07;1.20;;;;;;;;;;4937285;28;20034;-81
2024/02/12 16:33:15;;;;;;;8.45;1.50;;;;;;;;;;4934436;28;20141;-81
2024/02/12 16:35:40;;;;;;;4.47;1.13;;;;;;;;;;4942896;28;20054;-81
2024/02/12 16:38:06;;;;;;;6.22;1.10;;;;;;;;;;4942970;28;20495;-81